Terminal Aerodrome Forecast
Issued by NWS

Home | Current Version | Previous Version | Graphics & Text | Print | Product List | Glossary On
Versions: 1 2 3 4 5 6 7 8 9 10 11 12 13
000
FTUS45 KGGW 231720
TAFGDV
TAF
KGDV 231720Z 2318/2418 09010KT P6SM VCSH SCT005 OVC010
     FM240300 04007KT P6SM -SHRA OVC005
     FM240600 01008KT P6SM -RA OVC004
     FM241200 33011KT P6SM RA OVC004=

USA.gov is the U.S. government's official web portal to all federal, state and local government web resources and services.